Kazak — 9V2928 — position and weather

sailwx.info

Track history (hours):
 
Tides and Currents Weather Stations Pressure Air Temp Water Temp Dewpoint Dewpoint Depression Visibility Wind Speed Wind Dir Waves Ship Positions

Kazak

Last reported at 2017-Sep-21 15:43 UTC. Time now 2017-Sep-24 03:34 UTC.
Position N 34°23' E 033°21'.

Length 120 m; draft 5.4 m.

Type: Tanker. MMSI: 565516000.

Date/timePositionNaut miles runAvg speedWind from/ knotsBaromVisibWave heightAir tempDewpointWater temp
2017-Sep-21 15:43N 34°23' E 033°21'1 1.5
2017-Sep-21 15:17N 34°23' E 033°20'3 4.1
2017-Sep-21 14:32N 34°25' E 033°23'  
2017-Sep-17 18:12N 34°26' E 033°24'0 0.2
2017-Sep-17 18:00N 34°26' E 033°24'10 0.2
2017-Sep-15 14:16N 34°33' E 033°32'2 5.6
2017-Sep-15 13:58N 34°32' E 033°31'3 0.2
2017-Sep-14 17:56N 34°29' E 033°29'1 0.6
2017-Sep-14 17:04N 34°29' E 033°28'0 0.8
2017-Sep-14 17:00N 34°29' E 033°28'0 0.9
2017-Sep-14 16:30N 34°29' E 033°27'2 3.9
2017-Sep-14 16:00N 34°29' E 033°25'3 5.5
2017-Sep-14 15:30N 34°28' E 033°22'3 5.1
2017-Sep-14 15:00N 34°28' E 033°19'2 3.8
2017-Sep-14 14:30N 34°30' E 033°18'1 1.1
2017-Sep-14 13:55N 34°30' E 033°18'1 2.3
2017-Sep-14 13:24N 34°30' E 033°16'714.6
2017-Sep-14 12:55N 34°28' E 033°08'1315.5
2017-Sep-14 12:04N 34°24' E 032°53'214.7
2017-Sep-14 11:58N 34°23' E 032°51'915.5
2017-Sep-14 11:24N 34°26' E 032°41'715.3
2017-Sep-14 10:57N 34°28' E 032°33'715.2
2017-Sep-14 10:30N 34°30' E 032°25'815.1
2017-Sep-14 10:00N 34°33' E 032°16'714.9
2017-Sep-14 09:30N 34°35' E 032°08'7814.6
2017-Sep-14 04:11N 34°59' E 030°38'314.7
2017-Sep-14 03:59N 35°00' E 030°34'714.9
2017-Sep-14 03:30N 35°02' E 030°26'814.8
2017-Sep-14 02:57N 35°05' E 030°17'814.7
2017-Sep-14 02:25N 35°07' E 030°08'1814.7
2017-Sep-14 01:11N 35°13' E 029°46'314.8
2017-Sep-14 01:00N 35°14' E 029°43'22214.7
2017-Sep-13 09:50N 37°14' E 025°51'514.6
2017-Sep-13 09:30N 37°17' E 025°47'913.4
2017-Sep-13 08:52N 37°25' E 025°43'614.4
2017-Sep-13 08:28N 37°31' E 025°43'714.4
2017-Sep-13 08:00N 37°38' E 025°43'713.9
2017-Sep-13 07:31N 37°45' E 025°43'13813.0
2017-Sep-12 20:52N 40°01' E 026°09'136 9.2
2017-Sep-12 06:10N 40°56' E 028°52'0 0.0
2017-Sep-12 03:36N 40°56' E 028°52'0 0.0
2017-Sep-12 03:28N 40°56' E 028°52'1 2.2
2017-Sep-12 02:59N 40°56' E 028°54'5 9.5
2017-Sep-12 02:30N 40°59' E 028°59'19 9.4
2017-Sep-12 00:29N 41°17' E 029°07'511.1
2017-Sep-12 00:00N 41°20' E 029°02'611.9
2017-Sep-11 23:30N 41°25' E 028°57'4 2.3
2017-Sep-11 21:32N 41°28' E 028°53'0 0.7
2017-Sep-11 21:20N 41°28' E 028°53'1 0.8
2017-Sep-11 20:11N 41°28' E 028°54'0 0.8
2017-Sep-11 19:53N 41°28' E 028°54'1 0.8
2017-Sep-11 19:05N 41°27' E 028°55'0 0.8
2017-Sep-11 18:56N 41°27' E 028°55'0 0.8
2017-Sep-11 18:29N 41°27' E 028°56'1 0.9
2017-Sep-11 17:17N 41°27' E 028°57'1 1.0
2017-Sep-11 16:47N 41°27' E 028°58'0 0.9
2017-Sep-11 16:29N 41°27' E 028°58'0 0.8
2017-Sep-11 15:59N 41°27' E 028°59'  
Track history (hours):
 
Tides and Currents Weather Stations Pressure Air Temp Water Temp Dewpoint Dewpoint Depression Visibility Wind Speed Wind Dir Waves Ship Positions

Kazak

Last reported at 2017-Sep-21 15:43 UTC. Time now 2017-Sep-24 03:34 UTC.
Position N 34°23' E 033°21'.

Length 120 m; draft 5.4 m.

Type: Tanker. MMSI: 565516000.

Date/timePositionNaut miles runAvg speedWind from/ knotsBaromVisibWave heightAir tempDewpointWater temp
2017-Sep-21 15:43N 34°23' E 033°21'1 1.5
2017-Sep-21 15:17N 34°23' E 033°20'3 4.1
2017-Sep-21 14:32N 34°25' E 033°23'  
2017-Sep-17 18:12N 34°26' E 033°24'0 0.2
2017-Sep-17 18:00N 34°26' E 033°24'10 0.2
2017-Sep-15 14:16N 34°33' E 033°32'2 5.6
2017-Sep-15 13:58N 34°32' E 033°31'3 0.2
2017-Sep-14 17:56N 34°29' E 033°29'1 0.6
2017-Sep-14 17:04N 34°29' E 033°28'0 0.8
2017-Sep-14 17:00N 34°29' E 033°28'0 0.9
2017-Sep-14 16:30N 34°29' E 033°27'2 3.9
2017-Sep-14 16:00N 34°29' E 033°25'3 5.5
2017-Sep-14 15:30N 34°28' E 033°22'3 5.1
2017-Sep-14 15:00N 34°28' E 033°19'2 3.8
2017-Sep-14 14:30N 34°30' E 033°18'1 1.1
2017-Sep-14 13:55N 34°30' E 033°18'1 2.3
2017-Sep-14 13:24N 34°30' E 033°16'714.6
2017-Sep-14 12:55N 34°28' E 033°08'1315.5
2017-Sep-14 12:04N 34°24' E 032°53'214.7
2017-Sep-14 11:58N 34°23' E 032°51'915.5
2017-Sep-14 11:24N 34°26' E 032°41'715.3
2017-Sep-14 10:57N 34°28' E 032°33'715.2
2017-Sep-14 10:30N 34°30' E 032°25'815.1
2017-Sep-14 10:00N 34°33' E 032°16'714.9
2017-Sep-14 09:30N 34°35' E 032°08'7814.6
2017-Sep-14 04:11N 34°59' E 030°38'314.7
2017-Sep-14 03:59N 35°00' E 030°34'714.9
2017-Sep-14 03:30N 35°02' E 030°26'814.8
2017-Sep-14 02:57N 35°05' E 030°17'814.7
2017-Sep-14 02:25N 35°07' E 030°08'1814.7
2017-Sep-14 01:11N 35°13' E 029°46'314.8
2017-Sep-14 01:00N 35°14' E 029°43'22214.7
2017-Sep-13 09:50N 37°14' E 025°51'514.6
2017-Sep-13 09:30N 37°17' E 025°47'913.4
2017-Sep-13 08:52N 37°25' E 025°43'614.4
2017-Sep-13 08:28N 37°31' E 025°43'714.4
2017-Sep-13 08:00N 37°38' E 025°43'713.9
2017-Sep-13 07:31N 37°45' E 025°43'13813.0
2017-Sep-12 20:52N 40°01' E 026°09'136 9.2
2017-Sep-12 06:10N 40°56' E 028°52'0 0.0
2017-Sep-12 03:36N 40°56' E 028°52'0 0.0
2017-Sep-12 03:28N 40°56' E 028°52'1 2.2
2017-Sep-12 02:59N 40°56' E 028°54'5 9.5
2017-Sep-12 02:30N 40°59' E 028°59'19 9.4
2017-Sep-12 00:29N 41°17' E 029°07'511.1
2017-Sep-12 00:00N 41°20' E 029°02'611.9
2017-Sep-11 23:30N 41°25' E 028°57'4 2.3
2017-Sep-11 21:32N 41°28' E 028°53'0 0.7
2017-Sep-11 21:20N 41°28' E 028°53'1 0.8
2017-Sep-11 20:11N 41°28' E 028°54'0 0.8
2017-Sep-11 19:53N 41°28' E 028°54'1 0.8
2017-Sep-11 19:05N 41°27' E 028°55'0 0.8
2017-Sep-11 18:56N 41°27' E 028°55'0 0.8
2017-Sep-11 18:29N 41°27' E 028°56'1 0.9
2017-Sep-11 17:17N 41°27' E 028°57'1 1.0
2017-Sep-11 16:47N 41°27' E 028°58'0 0.9
2017-Sep-11 16:29N 41°27' E 028°58'0 0.8
2017-Sep-11 15:59N 41°27' E 028°59'  

Dump ship's entire track history